sensor_id;sensor_type;location;lat;lon;timestamp;temperature;humidity
14705;DHT22;7442;50.840;3.396;2024-03-08T00:00:40;21.40;48.60
14705;DHT22;7442;50.840;3.396;2024-03-08T00:03:11;21.40;48.60
14705;DHT22;7442;50.840;3.396;2024-03-08T00:05:41;21.40;48.50
14705;DHT22;7442;50.840;3.396;2024-03-08T00:08:12;21.40;48.50
14705;DHT22;7442;50.840;3.396;2024-03-08T00:10:42;21.40;49.10
14705;DHT22;7442;50.840;3.396;2024-03-08T00:13:12;21.40;48.40
14705;DHT22;7442;50.840;3.396;2024-03-08T00:15:42;21.40;48.50
14705;DHT22;7442;50.840;3.396;2024-03-08T00:18:12;21.40;48.50
14705;DHT22;7442;50.840;3.396;2024-03-08T00:20:49;21.40;48.50
14705;DHT22;7442;50.840;3.396;2024-03-08T00:23:19;21.40;48.40
14705;DHT22;7442;50.840;3.396;2024-03-08T00:25:50;21.40;48.50
14705;DHT22;7442;50.840;3.396;2024-03-08T00:28:20;21.40;48.40
14705;DHT22;7442;50.840;3.396;2024-03-08T00:30:57;21.40;48.40
14705;DHT22;7442;50.840;3.396;2024-03-08T00:33:27;21.40;48.40
14705;DHT22;7442;50.840;3.396;2024-03-08T00:35:57;21.30;48.30
14705;DHT22;7442;50.840;3.396;2024-03-08T00:38:27;21.30;49.00
14705;DHT22;7442;50.840;3.396;2024-03-08T00:40:57;21.30;48.40
14705;DHT22;7442;50.840;3.396;2024-03-08T00:43:27;21.30;48.30
14705;DHT22;7442;50.840;3.396;2024-03-08T00:45:59;21.40;48.30
14705;DHT22;7442;50.840;3.396;2024-03-08T00:48:30;21.30;48.20
14705;DHT22;7442;50.840;3.396;2024-03-08T00:51:00;21.30;48.20
14705;DHT22;7442;50.840;3.396;2024-03-08T00:53:31;21.30;48.20
14705;DHT22;7442;50.840;3.396;2024-03-08T00:56:01;21.30;48.30
14705;DHT22;7442;50.840;3.396;2024-03-08T00:58:31;21.30;48.90
14705;DHT22;7442;50.840;3.396;2024-03-08T01:01:01;21.30;48.20
14705;DHT22;7442;50.840;3.396;2024-03-08T01:03:31;21.30;48.20
14705;DHT22;7442;50.840;3.396;2024-03-08T01:06:03;21.30;48.20
14705;DHT22;7442;50.840;3.396;2024-03-08T01:08:33;21.30;48.20
14705;DHT22;7442;50.840;3.396;2024-03-08T01:11:04;21.30;48.10
14705;DHT22;7442;50.840;3.396;2024-03-08T01:13:34;21.30;48.10
14705;DHT22;7442;50.840;3.396;2024-03-08T01:16:05;21.30;48.10
14705;DHT22;7442;50.840;3.396;2024-03-08T01:18:35;21.30;48.10
14705;DHT22;7442;50.840;3.396;2024-03-08T01:21:05;21.30;48.10
14705;DHT22;7442;50.840;3.396;2024-03-08T01:23:35;21.30;48.20
14705;DHT22;7442;50.840;3.396;2024-03-08T01:26:06;21.20;48.10
14705;DHT22;7442;50.840;3.396;2024-03-08T01:28:36;21.30;48.20
14705;DHT22;7442;50.840;3.396;2024-03-08T01:31:06;21.30;48.20
14705;DHT22;7442;50.840;3.396;2024-03-08T01:33:36;21.20;48.20
14705;DHT22;7442;50.840;3.396;2024-03-08T01:36:06;21.20;48.80
14705;DHT22;7442;50.840;3.396;2024-03-08T01:38:37;21.20;48.20
14705;DHT22;7442;50.840;3.396;2024-03-08T01:41:07;21.20;48.20
14705;DHT22;7442;50.840;3.396;2024-03-08T01:43:38;21.20;48.20
14705;DHT22;7442;50.840;3.396;2024-03-08T01:46:09;21.20;48.20
14705;DHT22;7442;50.840;3.396;2024-03-08T01:48:41;21.10;48.20
14705;DHT22;7442;50.840;3.396;2024-03-08T01:51:12;21.20;48.80
14705;DHT22;7442;50.840;3.396;2024-03-08T01:53:46;21.20;48.20
14705;DHT22;7442;50.840;3.396;2024-03-08T01:56:16;21.20;48.80
14705;DHT22;7442;50.840;3.396;2024-03-08T01:58:47;21.20;48.10
14705;DHT22;7442;50.840;3.396;2024-03-08T02:01:17;21.20;48.20
14705;DHT22;7442;50.840;3.396;2024-03-08T02:03:49;21.10;48.20
14705;DHT22;7442;50.840;3.396;2024-03-08T02:06:19;21.10;48.10
14705;DHT22;7442;50.840;3.396;2024-03-08T02:08:50;21.10;48.10
14705;DHT22;7442;50.840;3.396;2024-03-08T02:11:20;21.10;48.10
14705;DHT22;7442;50.840;3.396;2024-03-08T02:13:50;21.10;48.10
14705;DHT22;7442;50.840;3.396;2024-03-08T02:16:21;21.10;48.10
14705;DHT22;7442;50.840;3.396;2024-03-08T02:18:51;21.10;48.10
14705;DHT22;7442;50.840;3.396;2024-03-08T02:21:21;21.10;48.00
14705;DHT22;7442;50.840;3.396;2024-03-08T02:23:51;21.10;47.70
14705;DHT22;7442;50.840;3.396;2024-03-08T02:26:21;21.10;48.00
14705;DHT22;7442;50.840;3.396;2024-03-08T02:28:51;21.10;47.90
14705;DHT22;7442;50.840;3.396;2024-03-08T02:31:22;21.10;47.90
14705;DHT22;7442;50.840;3.396;2024-03-08T02:33:52;21.10;47.90
14705;DHT22;7442;50.840;3.396;2024-03-08T02:36:22;21.10;48.00
14705;DHT22;7442;50.840;3.396;2024-03-08T02:38:52;21.10;48.00
14705;DHT22;7442;50.840;3.396;2024-03-08T02:41:23;21.10;47.90
14705;DHT22;7442;50.840;3.396;2024-03-08T02:43:53;21.10;48.00
14705;DHT22;7442;50.840;3.396;2024-03-08T02:46:24;21.00;48.00
14705;DHT22;7442;50.840;3.396;2024-03-08T02:48:54;21.00;48.00
14705;DHT22;7442;50.840;3.396;2024-03-08T02:51:24;21.00;48.00
14705;DHT22;7442;50.840;3.396;2024-03-08T02:53:55;21.00;48.00
14705;DHT22;7442;50.840;3.396;2024-03-08T02:56:25;21.00;48.00
14705;DHT22;7442;50.840;3.396;2024-03-08T02:58:55;21.00;48.00
14705;DHT22;7442;50.840;3.396;2024-03-08T03:01:25;21.00;48.10
14705;DHT22;7442;50.840;3.396;2024-03-08T03:03:55;20.90;48.00
14705;DHT22;7442;50.840;3.396;2024-03-08T03:06:25;20.90;48.00
14705;DHT22;7442;50.840;3.396;2024-03-08T03:08:55;20.90;48.10
14705;DHT22;7442;50.840;3.396;2024-03-08T03:11:26;20.90;48.10
14705;DHT22;7442;50.840;3.396;2024-03-08T03:13:56;20.90;48.10
14705;DHT22;7442;50.840;3.396;2024-03-08T03:16:26;20.90;48.10
14705;DHT22;7442;50.840;3.396;2024-03-08T03:18:56;20.90;48.10
14705;DHT22;7442;50.840;3.396;2024-03-08T03:21:28;20.90;48.10
14705;DHT22;7442;50.840;3.396;2024-03-08T03:24:00;20.90;48.10
14705;DHT22;7442;50.840;3.396;2024-03-08T03:26:30;20.80;48.00
14705;DHT22;7442;50.840;3.396;2024-03-08T03:29:00;20.90;48.00
14705;DHT22;7442;50.840;3.396;2024-03-08T03:31:32;20.90;48.10
14705;DHT22;7442;50.840;3.396;2024-03-08T03:34:02;20.90;48.00
14705;DHT22;7442;50.840;3.396;2024-03-08T03:36:33;20.80;48.00
14705;DHT22;7442;50.840;3.396;2024-03-08T03:39:04;20.90;48.00
14705;DHT22;7442;50.840;3.396;2024-03-08T03:41:36;20.90;48.60
14705;DHT22;7442;50.840;3.396;2024-03-08T03:44:07;20.90;48.40
14705;DHT22;7442;50.840;3.396;2024-03-08T03:46:43;20.90;47.90
14705;DHT22;7442;50.840;3.396;2024-03-08T03:49:13;20.90;47.90
14705;DHT22;7442;50.840;3.396;2024-03-08T03:51:43;20.90;47.90
14705;DHT22;7442;50.840;3.396;2024-03-08T03:54:13;20.90;47.90
14705;DHT22;7442;50.840;3.396;2024-03-08T03:56:43;20.90;47.80
14705;DHT22;7442;50.840;3.396;2024-03-08T03:59:15;20.80;47.80
14705;DHT22;7442;50.840;3.396;2024-03-08T04:01:45;20.90;47.80
14705;DHT22;7442;50.840;3.396;2024-03-08T04:04:15;20.90;47.80
14705;DHT22;7442;50.840;3.396;2024-03-08T04:06:45;20.80;47.80
14705;DHT22;7442;50.840;3.396;2024-03-08T04:09:15;20.90;47.80
14705;DHT22;7442;50.840;3.396;2024-03-08T04:11:47;20.90;47.80
14705;DHT22;7442;50.840;3.396;2024-03-08T04:14:18;20.90;47.80
14705;DHT22;7442;50.840;3.396;2024-03-08T04:16:48;20.80;47.70
14705;DHT22;7442;50.840;3.396;2024-03-08T04:19:18;20.80;47.70
14705;DHT22;7442;50.840;3.396;2024-03-08T04:21:48;20.80;47.60
14705;DHT22;7442;50.840;3.396;2024-03-08T04:24:18;20.80;47.70
14705;DHT22;7442;50.840;3.396;2024-03-08T04:26:49;20.80;47.60
14705;DHT22;7442;50.840;3.396;2024-03-08T04:29:19;20.90;47.70
14705;DHT22;7442;50.840;3.396;2024-03-08T04:31:57;20.80;47.80
14705;DHT22;7442;50.840;3.396;2024-03-08T04:34:35;20.80;47.70
14705;DHT22;7442;50.840;3.396;2024-03-08T04:37:05;20.80;47.80
14705;DHT22;7442;50.840;3.396;2024-03-08T04:39:35;20.80;47.80
14705;DHT22;7442;50.840;3.396;2024-03-08T04:42:05;20.70;48.40
14705;DHT22;7442;50.840;3.396;2024-03-08T04:44:40;20.70;47.70
14705;DHT22;7442;50.840;3.396;2024-03-08T04:47:10;20.80;47.90
14705;DHT22;7442;50.840;3.396;2024-03-08T04:49:40;20.80;47.80
14705;DHT22;7442;50.840;3.396;2024-03-08T04:52:10;20.80;47.80
14705;DHT22;7442;50.840;3.396;2024-03-08T04:54:41;20.80;47.80
14705;DHT22;7442;50.840;3.396;2024-03-08T04:57:11;20.70;47.80
14705;DHT22;7442;50.840;3.396;2024-03-08T04:59:41;20.70;47.70
14705;DHT22;7442;50.840;3.396;2024-03-08T05:02:11;20.70;47.70
14705;DHT22;7442;50.840;3.396;2024-03-08T05:04:41;20.80;47.80
14705;DHT22;7442;50.840;3.396;2024-03-08T05:07:11;20.80;47.70
14705;DHT22;7442;50.840;3.396;2024-03-08T05:09:41;20.70;47.70
14705;DHT22;7442;50.840;3.396;2024-03-08T05:12:11;20.70;47.70
14705;DHT22;7442;50.840;3.396;2024-03-08T05:14:41;20.70;47.70
14705;DHT22;7442;50.840;3.396;2024-03-08T05:17:18;20.70;47.70
14705;DHT22;7442;50.840;3.396;2024-03-08T05:19:48;20.70;47.60
14705;DHT22;7442;50.840;3.396;2024-03-08T05:22:18;20.70;47.60
14705;DHT22;7442;50.840;3.396;2024-03-08T05:24:48;20.70;47.60
14705;DHT22;7442;50.840;3.396;2024-03-08T05:27:18;20.70;47.60
14705;DHT22;7442;50.840;3.396;2024-03-08T05:29:48;20.70;47.60
14705;DHT22;7442;50.840;3.396;2024-03-08T05:32:18;20.70;47.60
14705;DHT22;7442;50.840;3.396;2024-03-08T05:34:49;20.70;47.50
14705;DHT22;7442;50.840;3.396;2024-03-08T05:37:19;20.70;47.50
14705;DHT22;7442;50.840;3.396;2024-03-08T05:39:49;20.70;47.50
14705;DHT22;7442;50.840;3.396;2024-03-08T05:42:26;20.70;47.50
14705;DHT22;7442;50.840;3.396;2024-03-08T05:44:57;20.70;47.50
14705;DHT22;7442;50.840;3.396;2024-03-08T05:47:27;20.70;47.50
14705;DHT22;7442;50.840;3.396;2024-03-08T05:49:58;20.70;47.50
14705;DHT22;7442;50.840;3.396;2024-03-08T05:52:29;20.70;47.40
14705;DHT22;7442;50.840;3.396;2024-03-08T05:54:59;20.70;47.50
14705;DHT22;7442;50.840;3.396;2024-03-08T05:57:29;20.70;47.40
14705;DHT22;7442;50.840;3.396;2024-03-08T05:59:59;20.70;47.40
14705;DHT22;7442;50.840;3.396;2024-03-08T06:02:29;20.70;47.50
14705;DHT22;7442;50.840;3.396;2024-03-08T06:04:59;20.70;47.40
14705;DHT22;7442;50.840;3.396;2024-03-08T06:07:30;20.70;47.40
14705;DHT22;7442;50.840;3.396;2024-03-08T06:10:04;20.70;47.40
14705;DHT22;7442;50.840;3.396;2024-03-08T06:12:36;20.70;47.30
14705;DHT22;7442;50.840;3.396;2024-03-08T06:15:08;20.70;47.40
14705;DHT22;7442;50.840;3.396;2024-03-08T06:17:39;20.70;47.40
14705;DHT22;7442;50.840;3.396;2024-03-08T06:20:09;20.70;47.30
14705;DHT22;7442;50.840;3.396;2024-03-08T06:22:41;20.70;47.30
14705;DHT22;7442;50.840;3.396;2024-03-08T06:25:11;20.70;47.30
14705;DHT22;7442;50.840;3.396;2024-03-08T06:27:44;20.70;47.30
14705;DHT22;7442;50.840;3.396;2024-03-08T06:30:16;20.70;47.20
14705;DHT22;7442;50.840;3.396;2024-03-08T06:32:46;20.70;47.20
14705;DHT22;7442;50.840;3.396;2024-03-08T06:35:16;20.70;47.20
14705;DHT22;7442;50.840;3.396;2024-03-08T06:37:46;20.60;47.20
14705;DHT22;7442;50.840;3.396;2024-03-08T06:40:16;20.70;47.30
14705;DHT22;7442;50.840;3.396;2024-03-08T06:42:46;20.70;47.20
14705;DHT22;7442;50.840;3.396;2024-03-08T06:45:16;20.70;47.20
14705;DHT22;7442;50.840;3.396;2024-03-08T06:47:48;20.70;47.20
14705;DHT22;7442;50.840;3.396;2024-03-08T06:50:18;20.70;47.20
14705;DHT22;7442;50.840;3.396;2024-03-08T06:52:48;20.70;47.20
14705;DHT22;7442;50.840;3.396;2024-03-08T06:55:20;20.70;47.20
14705;DHT22;7442;50.840;3.396;2024-03-08T06:57:51;20.70;47.10
14705;DHT22;7442;50.840;3.396;2024-03-08T07:00:21;20.70;47.10
14705;DHT22;7442;50.840;3.396;2024-03-08T07:02:52;20.70;47.10
14705;DHT22;7442;50.840;3.396;2024-03-08T07:05:22;20.70;47.00
14705;DHT22;7442;50.840;3.396;2024-03-08T07:07:53;20.80;47.10
14705;DHT22;7442;50.840;3.396;2024-03-08T07:10:23;20.80;47.60
14705;DHT22;7442;50.840;3.396;2024-03-08T07:12:54;20.70;46.90
14705;DHT22;7442;50.840;3.396;2024-03-08T07:15:24;20.80;47.00
14705;DHT22;7442;50.840;3.396;2024-03-08T07:17:54;20.80;46.90
14705;DHT22;7442;50.840;3.396;2024-03-08T07:20:25;20.80;46.90
14705;DHT22;7442;50.840;3.396;2024-03-08T07:22:55;20.80;46.80
14705;DHT22;7442;50.840;3.396;2024-03-08T07:25:25;20.80;46.80
14705;DHT22;7442;50.840;3.396;2024-03-08T07:27:57;20.90;46.80
14705;DHT22;7442;50.840;3.396;2024-03-08T07:30:27;20.80;46.70
14705;DHT22;7442;50.840;3.396;2024-03-08T07:33:20;20.90;47.30
14705;DHT22;7442;50.840;3.396;2024-03-08T07:35:51;20.90;46.60
14705;DHT22;7442;50.840;3.396;2024-03-08T07:38:21;20.90;46.60
14705;DHT22;7442;50.840;3.396;2024-03-08T07:40:52;21.00;46.60
14705;DHT22;7442;50.840;3.396;2024-03-08T07:43:22;20.90;47.20
14705;DHT22;7442;50.840;3.396;2024-03-08T07:45:52;21.00;46.60
14705;DHT22;7442;50.840;3.396;2024-03-08T07:48:24;21.00;46.60
14705;DHT22;7442;50.840;3.396;2024-03-08T07:50:54;21.00;46.60
14705;DHT22;7442;50.840;3.396;2024-03-08T07:53:25;21.00;46.70
14705;DHT22;7442;50.840;3.396;2024-03-08T07:55:55;21.00;46.80
14705;DHT22;7442;50.840;3.396;2024-03-08T07:58:25;21.00;46.90
14705;DHT22;7442;50.840;3.396;2024-03-08T08:00:56;21.00;46.80
14705;DHT22;7442;50.840;3.396;2024-03-08T08:03:26;21.00;46.90
14705;DHT22;7442;50.840;3.396;2024-03-08T08:05:56;21.00;46.80
14705;DHT22;7442;50.840;3.396;2024-03-08T08:08:26;21.00;47.00
14705;DHT22;7442;50.840;3.396;2024-03-08T08:10:56;21.00;47.00
14705;DHT22;7442;50.840;3.396;2024-03-08T08:13:26;21.00;47.00
14705;DHT22;7442;50.840;3.396;2024-03-08T08:15:58;21.00;47.00
14705;DHT22;7442;50.840;3.396;2024-03-08T08:18:28;21.00;47.10
14705;DHT22;7442;50.840;3.396;2024-03-08T08:20:58;21.10;47.60
14705;DHT22;7442;50.840;3.396;2024-03-08T08:23:30;21.10;47.70
14705;DHT22;7442;50.840;3.396;2024-03-08T08:26:00;21.20;47.70
14705;DHT22;7442;50.840;3.396;2024-03-08T08:28:32;21.20;47.50
14705;DHT22;7442;50.840;3.396;2024-03-08T08:31:02;21.30;48.10
14705;DHT22;7442;50.840;3.396;2024-03-08T08:33:33;21.40;47.50
14705;DHT22;7442;50.840;3.396;2024-03-08T08:36:04;21.40;47.40
14705;DHT22;7442;50.840;3.396;2024-03-08T08:38:35;21.40;47.40
14705;DHT22;7442;50.840;3.396;2024-03-08T08:41:05;21.50;47.30
14705;DHT22;7442;50.840;3.396;2024-03-08T08:43:35;21.50;47.20
14705;DHT22;7442;50.840;3.396;2024-03-08T08:46:05;21.60;47.10
14705;DHT22;7442;50.840;3.396;2024-03-08T08:48:35;21.60;47.10
14705;DHT22;7442;50.840;3.396;2024-03-08T08:51:05;21.60;47.60
14705;DHT22;7442;50.840;3.396;2024-03-08T08:53:35;21.60;46.80
14705;DHT22;7442;50.840;3.396;2024-03-08T08:56:11;21.60;46.80
14705;DHT22;7442;50.840;3.396;2024-03-08T08:58:45;21.60;46.80
14705;DHT22;7442;50.840;3.396;2024-03-08T09:01:15;21.60;46.60
14705;DHT22;7442;50.840;3.396;2024-03-08T09:03:46;21.70;46.60
14705;DHT22;7442;50.840;3.396;2024-03-08T09:06:17;21.70;46.40
14705;DHT22;7442;50.840;3.396;2024-03-08T09:08:47;21.80;46.40
14705;DHT22;7442;50.840;3.396;2024-03-08T09:11:17;21.80;46.30
14705;DHT22;7442;50.840;3.396;2024-03-08T09:13:47;21.90;46.10
14705;DHT22;7442;50.840;3.396;2024-03-08T09:16:18;21.90;46.10
14705;DHT22;7442;50.840;3.396;2024-03-08T09:18:48;21.90;46.10
14705;DHT22;7442;50.840;3.396;2024-03-08T09:21:18;21.90;46.00
14705;DHT22;7442;50.840;3.396;2024-03-08T09:23:48;21.90;45.90
14705;DHT22;7442;50.840;3.396;2024-03-08T09:26:19;22.00;45.90
14705;DHT22;7442;50.840;3.396;2024-03-08T09:28:49;22.00;45.60
14705;DHT22;7442;50.840;3.396;2024-03-08T09:31:19;22.10;45.60
14705;DHT22;7442;50.840;3.396;2024-03-08T09:33:49;22.10;45.60
14705;DHT22;7442;50.840;3.396;2024-03-08T09:36:19;22.10;45.60
14705;DHT22;7442;50.840;3.396;2024-03-08T09:38:49;22.10;45.50
14705;DHT22;7442;50.840;3.396;2024-03-08T09:41:20;22.20;45.40
14705;DHT22;7442;50.840;3.396;2024-03-08T09:43:50;22.30;45.30
14705;DHT22;7442;50.840;3.396;2024-03-08T09:46:22;22.30;45.10
14705;DHT22;7442;50.840;3.396;2024-03-08T09:48:58;22.40;45.10
14705;DHT22;7442;50.840;3.396;2024-03-08T09:51:33;22.40;44.90
14705;DHT22;7442;50.840;3.396;2024-03-08T09:54:04;22.50;44.90
14705;DHT22;7442;50.840;3.396;2024-03-08T09:56:35;22.50;44.70
14705;DHT22;7442;50.840;3.396;2024-03-08T09:59:05;22.60;44.60
14705;DHT22;7442;50.840;3.396;2024-03-08T10:01:37;22.60;44.40
14705;DHT22;7442;50.840;3.396;2024-03-08T10:04:09;22.70;44.30
14705;DHT22;7442;50.840;3.396;2024-03-08T10:06:40;22.70;44.20
14705;DHT22;7442;50.840;3.396;2024-03-08T10:09:10;22.80;44.20
14705;DHT22;7442;50.840;3.396;2024-03-08T10:11:41;22.90;41.70
14705;DHT22;7442;50.840;3.396;2024-03-08T10:14:11;22.90;41.50
14705;DHT22;7442;50.840;3.396;2024-03-08T10:16:41;22.90;42.40
14705;DHT22;7442;50.840;3.396;2024-03-08T10:19:11;22.90;42.40
14705;DHT22;7442;50.840;3.396;2024-03-08T10:21:51;23.00;42.50
14705;DHT22;7442;50.840;3.396;2024-03-08T10:24:26;23.00;42.40
14705;DHT22;7442;50.840;3.396;2024-03-08T10:27:01;23.10;42.40
14705;DHT22;7442;50.840;3.396;2024-03-08T10:29:34;23.10;42.50
14705;DHT22;7442;50.840;3.396;2024-03-08T10:32:05;23.10;42.50
14705;DHT22;7442;50.840;3.396;2024-03-08T10:34:36;23.30;42.50
14705;DHT22;7442;50.840;3.396;2024-03-08T10:37:08;23.40;42.30
14705;DHT22;7442;50.840;3.396;2024-03-08T10:39:41;23.40;42.00
14705;DHT22;7442;50.840;3.396;2024-03-08T10:42:15;23.40;42.30
14705;DHT22;7442;50.840;3.396;2024-03-08T10:44:50;23.50;42.20
14705;DHT22;7442;50.840;3.396;2024-03-08T10:47:27;23.60;42.10
14705;DHT22;7442;50.840;3.396;2024-03-08T10:50:20;23.60;42.60
14705;DHT22;7442;50.840;3.396;2024-03-08T10:52:55;23.70;42.10
14705;DHT22;7442;50.840;3.396;2024-03-08T10:55:29;23.70;41.90
14705;DHT22;7442;50.840;3.396;2024-03-08T10:58:01;23.80;42.00
14705;DHT22;7442;50.840;3.396;2024-03-08T11:00:32;23.80;41.90
14705;DHT22;7442;50.840;3.396;2024-03-08T11:03:03;23.80;42.00
14705;DHT22;7442;50.840;3.396;2024-03-08T11:05:40;23.80;41.90
14705;DHT22;7442;50.840;3.396;2024-03-08T11:08:18;23.80;41.90
14705;DHT22;7442;50.840;3.396;2024-03-08T11:10:54;23.80;42.00
14705;DHT22;7442;50.840;3.396;2024-03-08T11:13:36;23.90;41.20
14705;DHT22;7442;50.840;3.396;2024-03-08T11:16:10;23.80;41.40
14705;DHT22;7442;50.840;3.396;2024-03-08T11:18:41;23.80;41.70
14705;DHT22;7442;50.840;3.396;2024-03-08T11:21:11;23.80;41.90
14705;DHT22;7442;50.840;3.396;2024-03-08T11:23:41;23.90;42.40
14705;DHT22;7442;50.840;3.396;2024-03-08T11:26:19;23.90;41.90
14705;DHT22;7442;50.840;3.396;2024-03-08T11:28:49;23.90;41.40
14705;DHT22;7442;50.840;3.396;2024-03-08T11:31:25;23.90;41.20
14705;DHT22;7442;50.840;3.396;2024-03-08T11:33:55;24.00;42.00
14705;DHT22;7442;50.840;3.396;2024-03-08T11:36:26;24.00;42.40
14705;DHT22;7442;50.840;3.396;2024-03-08T11:38:58;24.10;43.40
14705;DHT22;7442;50.840;3.396;2024-03-08T11:41:30;24.10;43.30
14705;DHT22;7442;50.840;3.396;2024-03-08T11:44:04;24.10;43.40
14705;DHT22;7442;50.840;3.396;2024-03-08T11:46:35;24.10;43.60
14705;DHT22;7442;50.840;3.396;2024-03-08T11:49:05;24.10;43.50
14705;DHT22;7442;50.840;3.396;2024-03-08T11:51:35;24.20;43.60
14705;DHT22;7442;50.840;3.396;2024-03-08T11:54:10;24.20;43.70
14705;DHT22;7442;50.840;3.396;2024-03-08T11:56:38;24.20;43.70
14705;DHT22;7442;50.840;3.396;2024-03-08T11:59:13;24.20;43.70
14705;DHT22;7442;50.840;3.396;2024-03-08T12:01:44;24.30;43.90
14705;DHT22;7442;50.840;3.396;2024-03-08T12:04:17;24.30;43.70
14705;DHT22;7442;50.840;3.396;2024-03-08T12:06:47;24.40;43.60
14705;DHT22;7442;50.840;3.396;2024-03-08T12:09:17;24.40;43.70
14705;DHT22;7442;50.840;3.396;2024-03-08T12:11:51;24.30;43.90
14705;DHT22;7442;50.840;3.396;2024-03-08T12:14:21;24.30;43.40
14705;DHT22;7442;50.840;3.396;2024-03-08T12:16:51;24.30;43.50
14705;DHT22;7442;50.840;3.396;2024-03-08T12:19:22;24.30;43.40
14705;DHT22;7442;50.840;3.396;2024-03-08T12:21:54;24.30;43.60
14705;DHT22;7442;50.840;3.396;2024-03-08T12:24:24;24.30;43.70
14705;DHT22;7442;50.840;3.396;2024-03-08T12:26:56;24.30;44.30
14705;DHT22;7442;50.840;3.396;2024-03-08T12:29:27;24.30;43.80
14705;DHT22;7442;50.840;3.396;2024-03-08T12:32:00;24.30;44.30
14705;DHT22;7442;50.840;3.396;2024-03-08T12:34:31;24.30;44.00
14705;DHT22;7442;50.840;3.396;2024-03-08T12:37:01;24.40;42.40
14705;DHT22;7442;50.840;3.396;2024-03-08T12:39:31;24.30;42.40
14705;DHT22;7442;50.840;3.396;2024-03-08T12:42:02;24.40;42.20
14705;DHT22;7442;50.840;3.396;2024-03-08T12:44:34;24.30;42.10
14705;DHT22;7442;50.840;3.396;2024-03-08T12:47:04;24.30;41.80
14705;DHT22;7442;50.840;3.396;2024-03-08T12:49:35;24.30;41.70
14705;DHT22;7442;50.840;3.396;2024-03-08T12:52:08;24.20;41.50
14705;DHT22;7442;50.840;3.396;2024-03-08T12:54:39;24.20;41.60
14705;DHT22;7442;50.840;3.396;2024-03-08T12:57:11;24.20;41.50
14705;DHT22;7442;50.840;3.396;2024-03-08T12:59:41;24.20;40.80
14705;DHT22;7442;50.840;3.396;2024-03-08T13:02:11;24.20;41.60
14705;DHT22;7442;50.840;3.396;2024-03-08T13:04:42;24.20;41.40
14705;DHT22;7442;50.840;3.396;2024-03-08T13:07:13;24.10;41.40
14705;DHT22;7442;50.840;3.396;2024-03-08T13:09:45;24.10;41.60
14705;DHT22;7442;50.840;3.396;2024-03-08T13:12:15;24.10;41.60
14705;DHT22;7442;50.840;3.396;2024-03-08T13:14:45;24.20;41.60
14705;DHT22;7442;50.840;3.396;2024-03-08T13:17:17;24.20;42.20
14705;DHT22;7442;50.840;3.396;2024-03-08T13:19:47;24.10;41.60
14705;DHT22;7442;50.840;3.396;2024-03-08T13:22:17;24.20;41.50
14705;DHT22;7442;50.840;3.396;2024-03-08T13:24:47;24.20;41.50
14705;DHT22;7442;50.840;3.396;2024-03-08T13:27:18;24.10;41.60
14705;DHT22;7442;50.840;3.396;2024-03-08T13:29:49;24.20;42.00
14705;DHT22;7442;50.840;3.396;2024-03-08T13:32:19;24.20;41.50
14705;DHT22;7442;50.840;3.396;2024-03-08T13:34:54;24.10;41.20
14705;DHT22;7442;50.840;3.396;2024-03-08T13:37:24;24.20;40.50
14705;DHT22;7442;50.840;3.396;2024-03-08T13:39:57;24.20;40.30
14705;DHT22;7442;50.840;3.396;2024-03-08T13:42:27;24.10;40.70
14705;DHT22;7442;50.840;3.396;2024-03-08T13:44:57;24.10;40.90
14705;DHT22;7442;50.840;3.396;2024-03-08T13:47:27;24.10;40.80
14705;DHT22;7442;50.840;3.396;2024-03-08T13:49:57;24.10;40.80
14705;DHT22;7442;50.840;3.396;2024-03-08T13:52:29;24.10;40.70
14705;DHT22;7442;50.840;3.396;2024-03-08T13:54:59;24.10;40.30
14705;DHT22;7442;50.840;3.396;2024-03-08T13:57:29;24.10;40.50
14705;DHT22;7442;50.840;3.396;2024-03-08T13:59:59;24.10;40.50
14705;DHT22;7442;50.840;3.396;2024-03-08T14:02:29;24.10;40.50
14705;DHT22;7442;50.840;3.396;2024-03-08T14:05:00;24.10;40.60
14705;DHT22;7442;50.840;3.396;2024-03-08T14:07:31;24.10;40.90
14705;DHT22;7442;50.840;3.396;2024-03-08T14:10:02;24.10;40.50
14705;DHT22;7442;50.840;3.396;2024-03-08T14:12:33;24.10;40.40
14705;DHT22;7442;50.840;3.396;2024-03-08T14:15:04;24.10;40.40
14705;DHT22;7442;50.840;3.396;2024-03-08T14:17:35;24.10;40.40
14705;DHT22;7442;50.840;3.396;2024-03-08T14:20:13;24.20;40.50
14705;DHT22;7442;50.840;3.396;2024-03-08T14:22:43;24.10;40.30
14705;DHT22;7442;50.840;3.396;2024-03-08T14:25:13;24.20;40.40
14705;DHT22;7442;50.840;3.396;2024-03-08T14:27:45;24.10;41.00
14705;DHT22;7442;50.840;3.396;2024-03-08T14:30:15;24.10;40.30
14705;DHT22;7442;50.840;3.396;2024-03-08T14:32:47;24.10;40.30
14705;DHT22;7442;50.840;3.396;2024-03-08T14:35:17;24.10;40.30
14705;DHT22;7442;50.840;3.396;2024-03-08T14:37:49;24.10;40.10
14705;DHT22;7442;50.840;3.396;2024-03-08T14:40:19;24.10;40.10
14705;DHT22;7442;50.840;3.396;2024-03-08T14:42:51;24.10;40.00
14705;DHT22;7442;50.840;3.396;2024-03-08T14:45:21;24.10;37.90
14705;DHT22;7442;50.840;3.396;2024-03-08T14:47:53;24.00;37.80
14705;DHT22;7442;50.840;3.396;2024-03-08T14:50:25;23.90;38.20
14705;DHT22;7442;50.840;3.396;2024-03-08T14:52:55;23.90;38.80
14705;DHT22;7442;50.840;3.396;2024-03-08T14:55:25;23.90;38.90
14705;DHT22;7442;50.840;3.396;2024-03-08T14:57:55;23.90;38.80
14705;DHT22;7442;50.840;3.396;2024-03-08T15:00:25;23.90;39.10
14705;DHT22;7442;50.840;3.396;2024-03-08T15:03:04;23.90;39.10
14705;DHT22;7442;50.840;3.396;2024-03-08T15:05:35;23.90;39.30
14705;DHT22;7442;50.840;3.396;2024-03-08T15:08:07;23.90;39.20
14705;DHT22;7442;50.840;3.396;2024-03-08T15:10:40;24.00;39.30
14705;DHT22;7442;50.840;3.396;2024-03-08T15:13:10;23.90;39.10
14705;DHT22;7442;50.840;3.396;2024-03-08T15:15:44;24.00;39.10
14705;DHT22;7442;50.840;3.396;2024-03-08T15:18:14;23.90;39.10
14705;DHT22;7442;50.840;3.396;2024-03-08T15:20:44;24.00;39.30
14705;DHT22;7442;50.840;3.396;2024-03-08T15:23:16;23.90;39.20
14705;DHT22;7442;50.840;3.396;2024-03-08T15:25:46;23.90;39.20
14705;DHT22;7442;50.840;3.396;2024-03-08T15:28:18;23.90;39.10
14705;DHT22;7442;50.840;3.396;2024-03-08T15:30:50;23.90;39.10
14705;DHT22;7442;50.840;3.396;2024-03-08T15:33:22;23.90;39.00
14705;DHT22;7442;50.840;3.396;2024-03-08T15:35:54;23.90;39.00
14705;DHT22;7442;50.840;3.396;2024-03-08T15:38:28;23.90;39.70
14705;DHT22;7442;50.840;3.396;2024-03-08T15:40:59;23.80;39.00
14705;DHT22;7442;50.840;3.396;2024-03-08T15:43:29;23.80;39.00
14705;DHT22;7442;50.840;3.396;2024-03-08T15:45:59;23.80;38.70
14705;DHT22;7442;50.840;3.396;2024-03-08T15:48:33;23.80;38.70
14705;DHT22;7442;50.840;3.396;2024-03-08T15:51:04;23.80;39.20
14705;DHT22;7442;50.840;3.396;2024-03-08T15:53:37;23.80;39.50
14705;DHT22;7442;50.840;3.396;2024-03-08T15:56:07;23.80;39.00
14705;DHT22;7442;50.840;3.396;2024-03-08T15:58:38;23.80;39.60
14705;DHT22;7442;50.840;3.396;2024-03-08T16:01:08;23.80;39.70
14705;DHT22;7442;50.840;3.396;2024-03-08T16:03:40;23.80;40.00
14705;DHT22;7442;50.840;3.396;2024-03-08T16:06:10;23.80;40.20
14705;DHT22;7442;50.840;3.396;2024-03-08T16:08:42;23.80;39.90